Time;durP1;ratioP1;P1;durP2;ratioP2;P2;SDS_P1;SDS_P2;PMS_P1;PMS_P2;Temp;Humidity;BMP_temperature;BMP_pressure;BME280_temperature;BME280_humidity;BME280_pressure;Samples;Min_cycle;Max_cycle;Signal;HPM_P1;HPM_P2
2021/12/23 00:00:40;;;;;;;35.10;21.58;;;;;;;-3.79;95.66;101829.97;2064080;28;43521;-59
2021/12/23 00:01:44;;;;;;;39.97;21.42;;;;;;;-3.79;95.71;101823.84;2064030;28;45016;-59
2021/12/23 00:02:46;;;;;;;40.08;23.20;;;;;;;-3.77;95.48;101820.47;2063954;28;43944;-59
2021/12/23 00:03:47;;;;;;;33.38;19.77;;;;;;;-3.76;95.38;101816.16;2064033;28;44214;-59
2021/12/23 00:04:49;;;;;;;35.00;20.60;;;;;;;-3.77;95.12;101819.59;2064127;28;44600;-59
2021/12/23 00:05:53;;;;;;;38.22;21.42;;;;;;;-3.78;95.15;101817.81;2064534;28;24221;-59
2021/12/23 00:06:55;;;;;;;35.60;21.63;;;;;;;-3.78;95.47;101823.94;2063755;28;44844;-59
2021/12/23 00:07:58;;;;;;;35.85;21.63;;;;;;;-3.77;96.00;101823.09;2064261;28;42364;-60
2021/12/23 00:09:00;;;;;;;36.80;20.05;;;;;;;-3.75;95.07;101825.78;2063943;28;45416;-59
2021/12/23 00:10:06;;;;;;;31.45;18.88;;;;;;;-3.75;95.81;101817.94;2063840;28;44645;-59
2021/12/23 00:11:08;;;;;;;37.25;21.70;;;;;;;-3.75;95.91;101829.34;2063887;28;45265;-59
2021/12/23 00:12:10;;;;;;;33.83;20.35;;;;;;;-3.75;95.43;101820.56;2063948;28;46552;-59
2021/12/23 00:13:11;;;;;;;37.85;20.15;;;;;;;-3.73;95.30;101816.28;2063904;28;44292;-60
2021/12/23 00:14:14;;;;;;;36.22;21.38;;;;;;;-3.73;95.46;101817.22;2064387;28;45577;-59
2021/12/23 00:16:47;;;;;;;38.00;21.45;;;;;;;-3.72;95.76;101815.50;2064075;28;42465;-59
2021/12/23 00:17:59;;;;;;;32.58;18.95;;;;;;;-3.73;95.89;101816.28;2064038;28;44118;-59
2021/12/23 00:19:14;;;;;;;38.25;22.30;;;;;;;-3.72;95.57;101803.28;2063982;28;43420;-59
2021/12/23 00:24:06;;;;;;;34.63;20.65;;;;;;;-3.73;96.22;101811.06;2064295;28;31291;-61
2021/12/23 00:25:08;;;;;;;33.85;20.45;;;;;;;-3.73;96.12;101817.22;2064059;28;44589;-61
2021/12/23 00:26:10;;;;;;;29.63;16.85;;;;;;;-3.72;95.66;101813.75;2063559;28;44089;-60
2021/12/23 00:27:12;;;;;;;29.02;17.27;;;;;;;-3.74;95.78;101820.63;2064205;28;44253;-59
2021/12/23 00:28:14;;;;;;;33.97;20.95;;;;;;;-3.74;96.23;101822.38;2063703;28;39720;-58
2021/12/23 00:29:16;;;;;;;35.63;20.70;;;;;;;-3.72;96.06;101823.34;2064111;28;29372;-61
2021/12/23 00:30:18;;;;;;;34.28;21.02;;;;;;;-3.72;95.98;101812.88;2064009;28;44752;-58
2021/12/23 00:31:20;;;;;;;31.80;19.35;;;;;;;-3.73;95.38;101816.28;2063834;28;45416;-59
2021/12/23 00:32:21;;;;;;;31.67;20.42;;;;;;;-3.73;96.16;101811.06;2064012;28;35816;-61
2021/12/23 00:33:23;;;;;;;35.92;20.60;;;;;;;-3.73;95.61;101811.97;2063784;28;45110;-61
2021/12/23 00:34:26;;;;;;;39.45;22.63;;;;;;;-3.72;96.19;101805.03;2063696;28;44317;-59
2021/12/23 00:35:28;;;;;;;32.22;19.77;;;;;;;-3.73;95.89;101805.81;2062530;28;46099;-58
2021/12/23 00:36:30;;;;;;;36.72;22.20;;;;;;;-3.74;95.41;101804.94;2062755;28;45514;-60
2021/12/23 00:37:38;;;;;;;35.65;20.40;;;;;;;-3.74;95.73;101794.47;2055872;28;46596;-59
2021/12/23 00:38:50;;;;;;;35.42;20.58;;;;;;;-3.73;95.96;101805.81;2055859;28;43279;-58
2021/12/23 00:39:55;;;;;;;32.75;20.75;;;;;;;-3.76;95.82;101800.47;2055409;28;44332;-59
2021/12/23 00:40:59;;;;;;;35.50;21.17;;;;;;;-3.75;96.15;101802.25;2055268;28;46218;-58
2021/12/23 00:42:07;;;;;;;38.75;22.17;;;;;;;-3.76;95.47;101800.47;2055885;28;41465;-59
2021/12/23 00:43:08;;;;;;;29.73;16.55;;;;;;;-3.79;95.30;101795.97;2055923;28;44308;-60
2021/12/23 00:44:12;;;;;;;26.88;16.10;;;;;;;-3.81;96.20;101797.63;2055487;28;46242;-59
2021/12/23 00:45:14;;;;;;;32.45;19.85;;;;;;;-3.81;95.38;101795.00;2055761;28;33886;-60
2021/12/23 00:46:18;;;;;;;31.60;18.80;;;;;;;-3.78;96.10;101791.66;2054889;28;45329;-59
2021/12/23 00:47:20;;;;;;;39.40;22.13;;;;;;;-3.77;96.26;101789.09;2055619;28;41793;-58
2021/12/23 00:48:22;;;;;;;35.05;21.80;;;;;;;-3.74;95.34;101788.34;2055351;28;43990;-59
2021/12/23 00:49:24;;;;;;;34.20;20.35;;;;;;;-3.75;95.96;101781.31;2055954;28;45936;-59
2021/12/23 00:50:26;;;;;;;35.28;21.35;;;;;;;-3.76;95.68;101779.53;2055611;28;44174;-60
2021/12/23 00:51:29;;;;;;;38.13;22.23;;;;;;;-3.76;95.97;101774.31;2055866;28;46213;-60
2021/12/23 00:52:37;;;;;;;36.63;22.05;;;;;;;-3.74;96.18;101775.28;2055581;28;43013;-59
2021/12/23 00:53:40;;;;;;;38.50;21.55;;;;;;;-3.74;96.20;101784.00;2055457;28;45651;-59
2021/12/23 00:54:42;;;;;;;30.70;17.90;;;;;;;-3.76;95.39;101780.44;2055771;28;45907;-61
2021/12/23 00:55:48;;;;;;;37.17;21.10;;;;;;;-3.75;96.05;101781.31;2056400;28;27035;-59
2021/12/23 00:56:51;;;;;;;35.22;20.35;;;;;;;-3.76;95.42;101780.44;2055957;28;46355;-59
2021/12/23 00:57:53;;;;;;;38.80;21.45;;;;;;;-3.74;96.30;101777.88;2055658;28;42428;-61
2021/12/23 00:58:55;;;;;;;34.40;20.25;;;;;;;-3.75;95.87;101776.06;2055783;28;44315;-58
2021/12/23 00:59:58;;;;;;;37.83;22.98;;;;;;;-3.75;95.72;101770.84;2055148;28;45725;-60
2021/12/23 01:01:01;;;;;;;29.10;18.65;;;;;;;-3.73;95.99;101774.44;2061820;28;45602;-58
2021/12/23 01:02:07;;;;;;;36.20;20.63;;;;;;;-3.70;95.39;101779.81;2064270;28;26682;-61
2021/12/23 01:03:12;;;;;;;38.85;20.17;;;;;;;-3.71;95.94;101772.81;2064833;28;20080;-60
2021/12/23 01:04:15;;;;;;;34.88;21.48;;;;;;;-3.69;95.85;101774.66;2063730;28;43942;-60
2021/12/23 01:05:21;;;;;;;38.15;21.08;;;;;;;-3.69;96.39;101768.53;2063530;28;44926;-61
2021/12/23 01:06:23;;;;;;;32.67;19.65;;;;;;;-3.69;95.48;101769.44;2063248;28;43740;-58
2021/12/23 01:07:25;;;;;;;40.38;22.17;;;;;;;-3.66;95.54;101758.19;2063089;28;44221;-61
2021/12/23 01:08:27;;;;;;;36.20;21.60;;;;;;;-3.66;95.83;101771.28;2063462;28;46146;-58
2021/12/23 01:09:31;;;;;;;38.20;23.27;;;;;;;-3.65;96.25;101770.47;2064299;28;20042;-57
2021/12/23 01:10:34;;;;;;;35.38;20.63;;;;;;;-3.66;95.69;101772.22;2063650;28;46655;-60
2021/12/23 01:11:39;;;;;;;33.38;20.50;;;;;;;-3.64;95.45;101777.53;2062778;28;42367;-60
2021/12/23 01:12:46;;;;;;;30.67;19.35;;;;;;;-3.64;95.73;101772.28;2063086;28;45302;-60
2021/12/23 01:14:00;;;;;;;33.05;20.42;;;;;;;-3.63;95.39;101768.81;2064049;28;44613;-60
2021/12/23 01:15:16;;;;;;;33.47;20.58;;;;;;;-3.63;95.78;101766.22;2063861;28;43975;-60
2021/12/23 01:16:36;;;;;;;33.70;19.63;;;;;;;-3.62;95.84;101775.88;2063374;28;46575;-60
2021/12/23 01:18:05;;;;;;;29.83;17.17;;;;;;;-3.62;96.25;101774.94;2064483;28;28012;-58
2021/12/23 01:19:12;;;;;;;30.35;17.73;;;;;;;-3.61;95.85;101771.53;2063601;28;44022;-60
2021/12/23 01:20:13;;;;;;;36.00;21.00;;;;;;;-3.62;95.82;101773.25;2063608;28;44392;-60
2021/12/23 01:21:18;;;;;;;40.05;22.27;;;;;;;-3.61;96.04;101777.66;2063436;28;45541;-60
2021/12/23 01:22:21;;;;;;;38.40;21.35;;;;;;;-3.61;95.76;101775.03;2063894;28;29568;-60
2021/12/23 01:23:24;;;;;;;32.88;19.30;;;;;;;-3.60;95.93;101775.94;2063532;28;44989;-60
2021/12/23 01:24:29;;;;;;;32.95;19.33;;;;;;;-3.60;95.45;101774.22;2064187;28;45886;-60
2021/12/23 01:25:33;;;;;;;37.25;21.80;;;;;;;-3.58;96.25;101774.28;2063234;28;44922;-60
2021/12/23 01:26:35;;;;;;;29.90;18.67;;;;;;;-3.60;95.61;101776.84;2063700;28;43772;-60
2021/12/23 01:27:37;;;;;;;34.95;21.90;;;;;;;-3.59;95.78;101780.34;2063437;28;43330;-60
2021/12/23 01:28:38;;;;;;;36.42;21.27;;;;;;;-3.57;96.19;101778.69;2063555;28;44597;-60
2021/12/23 01:29:40;;;;;;;31.40;19.13;;;;;;;-3.59;96.05;101776.00;2063703;28;45317;-60
2021/12/23 01:30:42;;;;;;;30.50;18.23;;;;;;;-3.57;95.84;101771.75;2062374;28;46280;-61
2021/12/23 01:31:45;;;;;;;27.38;18.20;;;;;;;-3.58;95.85;101766.44;2063349;28;43626;-60
2021/12/23 01:32:50;;;;;;;32.63;19.67;;;;;;;-3.58;95.75;101762.09;2070484;28;44147;-61
2021/12/23 01:33:55;;;;;;;32.88;19.85;;;;;;;-3.58;96.18;101759.47;2062648;28;45718;-61
2021/12/23 01:34:56;;;;;;;36.65;21.50;;;;;;;-3.57;95.67;101761.28;2062984;28;46656;-60
2021/12/23 01:35:58;;;;;;;31.60;19.77;;;;;;;-3.57;95.84;101758.66;2063585;28;45273;-60
2021/12/23 01:37:03;;;;;;;35.53;21.15;;;;;;;-3.56;95.89;101754.31;2063579;28;42193;-59
2021/12/23 01:38:07;;;;;;;30.85;18.67;;;;;;;-3.56;96.01;101752.59;2063549;28;45741;-60
2021/12/23 01:39:09;;;;;;;35.00;20.15;;;;;;;-3.56;95.67;101752.59;2063715;28;45747;-60
2021/12/23 01:40:15;;;;;;;28.55;17.23;;;;;;;-3.55;96.16;101757.03;2063130;28;42879;-60
2021/12/23 01:41:17;;;;;;;36.47;21.90;;;;;;;-3.56;96.19;101754.31;2063418;28;46577;-60
2021/12/23 01:42:19;;;;;;;31.30;19.52;;;;;;;-3.55;95.94;101753.47;2063422;28;44730;-60
2021/12/23 01:43:20;;;;;;;36.05;21.13;;;;;;;-3.55;95.79;101759.63;2063712;28;45160;-60
2021/12/23 01:44:23;;;;;;;31.30;19.02;;;;;;;-3.55;95.66;101751.78;2063674;28;45985;-60
2021/12/23 01:45:29;;;;;;;30.38;18.17;;;;;;;-3.56;96.01;101742.13;2063664;28;43164;-60
2021/12/23 01:46:32;;;;;;;36.22;19.73;;;;;;;-3.53;95.84;101750.13;2063874;28;20904;-60
2021/12/23 01:47:36;;;;;;;35.65;20.88;;;;;;;-3.51;95.65;101751.09;2064127;28;42049;-60
2021/12/23 01:48:38;;;;;;;36.72;21.25;;;;;;;-3.53;95.90;101751.88;2062952;28;43889;-60
2021/12/23 01:49:39;;;;;;;29.88;16.48;;;;;;;-3.52;96.14;101751.91;2063120;28;45202;-60
2021/12/23 01:50:41;;;;;;;39.20;22.23;;;;;;;-3.52;95.88;101743.16;2062948;28;43995;-60
2021/12/23 01:51:43;;;;;;;35.33;22.17;;;;;;;-3.51;95.66;101740.63;2064070;28;30402;-60
2021/12/23 01:52:45;;;;;;;34.90;20.77;;;;;;;-3.51;95.46;101740.63;2063126;28;44772;-60
2021/12/23 01:53:49;;;;;;;28.73;17.67;;;;;;;-3.51;95.51;101740.63;2063301;28;43666;-60
2021/12/23 01:54:51;;;;;;;33.42;21.58;;;;;;;-3.51;95.65;101745.84;2063673;28;33074;-60
2021/12/23 01:55:53;;;;;;;34.03;20.00;;;;;;;-3.51;95.77;101744.97;2063341;28;43882;-60
2021/12/23 01:56:55;;;;;;;38.47;22.23;;;;;;;-3.51;95.76;101740.63;2063527;28;45766;-60
2021/12/23 01:57:57;;;;;;;30.45;19.48;;;;;;;-3.51;95.80;101734.50;2063401;28;46008;-60
2021/12/23 01:58:59;;;;;;;27.63;17.00;;;;;;;-3.50;95.98;101731.97;2063031;28;45058;-60
2021/12/23 02:00:09;;;;;;;32.35;19.55;;;;;;;-3.50;96.05;101742.44;2062252;28;47757;-60
2021/12/23 02:01:14;;;;;;;36.85;21.25;;;;;;;-3.51;95.71;101732.78;2062862;28;20047;-60
2021/12/23 02:02:16;;;;;;;33.92;19.67;;;;;;;-3.49;95.64;101732.84;2062527;28;44469;-60
2021/12/23 02:03:19;;;;;;;33.50;20.83;;;;;;;-3.49;95.91;101732.84;2064618;28;20031;-60
2021/12/23 02:04:21;;;;;;;33.15;20.27;;;;;;;-3.50;95.50;101731.97;2063205;28;44261;-60
2021/12/23 02:05:24;;;;;;;36.08;21.95;;;;;;;-3.50;95.87;101737.19;2063674;28;45318;-60
2021/12/23 02:06:25;;;;;;;35.05;21.95;;;;;;;-3.49;95.85;101736.34;2063265;28;43726;-60
2021/12/23 02:07:27;;;;;;;31.48;19.38;;;;;;;-3.50;95.97;101737.19;2062990;28;45406;-60
2021/12/23 02:08:32;;;;;;;34.03;21.45;;;;;;;-3.49;95.43;101738.97;2063888;28;28219;-60
2021/12/23 02:09:33;;;;;;;31.52;19.27;;;;;;;-3.50;95.91;101731.97;2063984;28;44153;-59
2021/12/23 02:10:36;;;;;;;30.02;17.38;;;;;;;-3.49;95.90;101736.34;2062926;28;45643;-60
2021/12/23 02:11:38;;;;;;;30.60;18.77;;;;;;;-3.50;96.19;101726.72;2063595;28;45943;-60
2021/12/23 02:12:45;;;;;;;32.70;19.98;;;;;;;-3.47;95.75;101726.84;2064559;28;44184;-60
2021/12/23 02:13:50;;;;;;;32.78;19.20;;;;;;;-3.47;95.76;101732.06;2065173;28;20054;-60
2021/12/23 02:14:52;;;;;;;33.30;21.38;;;;;;;-3.48;95.73;101729.41;2066675;28;21356;-60
2021/12/23 02:15:54;;;;;;;34.20;19.13;;;;;;;-3.48;95.43;101730.31;2072096;28;45640;-60
2021/12/23 02:16:56;;;;;;;30.33;17.80;;;;;;;-3.48;96.18;101719.84;2065154;28;34284;-60
2021/12/23 02:17:58;;;;;;;34.67;21.17;;;;;;;-3.47;95.99;101716.38;2064628;28;45503;-60
2021/12/23 02:19:04;;;;;;;35.03;21.58;;;;;;;-3.48;95.48;101711.97;2064903;28;46342;-60
2021/12/23 02:20:09;;;;;;;30.13;18.40;;;;;;;-3.47;95.61;101707.63;2065285;28;25441;-60
2021/12/23 02:21:11;;;;;;;39.47;21.75;;;;;;;-3.46;95.60;101715.56;2064627;28;44302;-60
2021/12/23 02:22:15;;;;;;;29.75;18.67;;;;;;;-3.47;96.05;101697.16;2065017;28;45724;-60
2021/12/23 02:23:17;;;;;;;23.77;15.60;;;;;;;-3.47;96.03;101695.44;2064565;28;45223;-60
2021/12/23 02:24:19;;;;;;;37.35;22.95;;;;;;;-3.45;95.66;101692.88;2064779;28;45809;-60
2021/12/23 02:25:21;;;;;;;34.22;21.50;;;;;;;-3.44;95.74;101691.19;2065296;28;23261;-60
2021/12/23 02:26:22;;;;;;;35.63;21.13;;;;;;;-3.43;95.71;101693.84;2064604;28;46764;-60
2021/12/23 02:27:24;;;;;;;33.20;19.55;;;;;;;-3.42;95.66;101685.19;2064855;28;46007;-60
2021/12/23 02:28:28;;;;;;;34.70;21.52;;;;;;;-3.40;95.58;101680.03;2064766;28;44103;-60
2021/12/23 02:29:30;;;;;;;32.47;20.40;;;;;;;-3.39;95.35;101679.19;2064717;28;46274;-60
2021/12/23 02:30:32;;;;;;;37.13;23.02;;;;;;;-3.40;95.53;101667.81;2064863;28;28273;-60
2021/12/23 02:31:34;;;;;;;32.67;21.48;;;;;;;-3.40;95.39;101665.22;2064622;28;43503;-60
2021/12/23 02:32:36;;;;;;;31.65;18.80;;;;;;;-3.39;95.47;101664.41;2064127;28;46233;-60
2021/12/23 02:33:38;;;;;;;36.53;21.83;;;;;;;-3.36;95.37;101672.38;2065017;28;42558;-58
2021/12/23 02:34:40;;;;;;;38.90;22.45;;;;;;;-3.38;95.68;101660.94;2063959;28;45474;-60
2021/12/23 02:35:44;;;;;;;33.00;20.13;;;;;;;-3.36;95.42;101663.63;2065219;28;28853;-60
2021/12/23 02:36:55;;;;;;;37.33;22.50;;;;;;;-3.35;95.27;101660.19;2065751;28;20121;-60
2021/12/23 02:37:57;;;;;;;35.90;21.67;;;;;;;-3.36;95.48;101661.88;2064524;28;45206;-60
2021/12/23 02:39:00;;;;;;;37.28;23.13;;;;;;;-3.36;95.21;101667.13;2065450;28;26912;-60
2021/12/23 02:40:03;;;;;;;38.63;22.52;;;;;;;-3.34;95.32;101662.88;2064773;28;45622;-60
2021/12/23 02:41:05;;;;;;;38.35;22.02;;;;;;;-3.34;95.34;101655.03;2064268;28;44616;-60
2021/12/23 02:42:08;;;;;;;33.28;20.60;;;;;;;-3.32;95.50;101655.06;2064530;28;44316;-60
2021/12/23 02:43:22;;;;;;;37.28;22.48;;;;;;;-3.32;95.14;101656.00;2064713;28;46344;-60
2021/12/23 02:44:24;;;;;;;31.52;19.75;;;;;;;-3.31;95.22;101654.25;2064625;28;43828;-60
2021/12/23 02:45:27;;;;;;;36.08;21.73;;;;;;;-3.31;94.97;101651.63;2065809;28;20054;-61
2021/12/23 02:46:29;;;;;;;38.22;23.83;;;;;;;-3.31;95.21;101647.28;2063871;28;43869;-60
2021/12/23 02:47:31;;;;;;;36.53;21.52;;;;;;;-3.33;95.20;101628.00;2064524;28;26695;-60
2021/12/23 02:48:37;;;;;;;35.38;21.42;;;;;;;-3.32;95.29;101641.97;2064476;28;45293;-60
2021/12/23 02:49:39;;;;;;;32.38;19.73;;;;;;;-3.31;95.41;101635.94;2064865;28;43650;-60
2021/12/23 02:50:48;;;;;;;34.65;21.15;;;;;;;-3.31;95.27;101634.19;2064538;28;45505;-60
2021/12/23 02:51:50;;;;;;;37.03;21.13;;;;;;;-3.32;95.13;101636.75;2064227;28;45831;-60
2021/12/23 02:52:53;;;;;;;30.98;19.35;;;;;;;-3.30;95.26;101642.97;2064701;28;31099;-60
2021/12/23 02:53:55;;;;;;;34.55;19.55;;;;;;;-3.31;95.18;101638.56;2064417;28;46452;-60
2021/12/23 02:54:58;;;;;;;33.70;20.52;;;;;;;-3.31;95.57;101638.56;2064206;28;43350;-60
2021/12/23 02:56:03;;;;;;;37.03;22.17;;;;;;;-3.32;95.17;101639.34;2064203;28;31471;-60
2021/12/23 02:57:05;;;;;;;41.40;24.02;;;;;;;-3.32;95.36;101640.28;2063765;28;45757;-60
2021/12/23 02:58:09;;;;;;;33.92;20.42;;;;;;;-3.31;95.32;101635.94;2063906;28;41682;-60
2021/12/23 02:59:11;;;;;;;35.45;22.17;;;;;;;-3.30;95.49;101633.38;2064716;28;44176;-60
2021/12/23 03:00:13;;;;;;;32.55;20.08;;;;;;;-3.30;95.42;101624.66;2064577;28;44755;-60
2021/12/23 03:01:19;;;;;;;43.83;23.50;;;;;;;-3.30;95.43;101622.91;2064870;28;29174;-60
2021/12/23 03:02:21;;;;;;;34.80;21.27;;;;;;;-3.30;95.33;101620.28;2063614;28;46288;-60
2021/12/23 03:03:25;;;;;;;34.60;22.02;;;;;;;-3.29;95.39;101626.41;2064802;28;43573;-59
2021/12/23 03:04:27;;;;;;;33.70;20.40;;;;;;;-3.29;95.40;101635.16;2063944;28;45788;-60
2021/12/23 03:05:29;;;;;;;33.40;21.85;;;;;;;-3.28;95.56;101630.84;2064427;28;44379;-60
2021/12/23 03:06:31;;;;;;;36.60;21.30;;;;;;;-3.27;95.69;101632.59;2064423;28;44088;-60
2021/12/23 03:07:33;;;;;;;38.13;24.10;;;;;;;-3.26;95.66;101634.41;2064539;28;46497;-60
2021/12/23 03:08:41;;;;;;;37.80;22.08;;;;;;;-3.24;95.35;101630.13;2064606;28;42563;-60
2021/12/23 03:09:47;;;;;;;37.08;22.52;;;;;;;-3.23;95.35;101626.69;2063965;28;45581;-60
2021/12/23 03:10:48;;;;;;;36.10;22.05;;;;;;;-3.22;95.32;101623.25;2064968;28;45760;-60
2021/12/23 03:11:50;;;;;;;33.60;19.80;;;;;;;-3.21;94.96;101614.56;2071718;28;45245;-60
2021/12/23 03:12:52;;;;;;;37.83;22.65;;;;;;;-3.21;95.07;101618.88;2064199;28;44234;-60
2021/12/23 03:13:55;;;;;;;37.78;22.98;;;;;;;-3.21;95.19;101601.47;2064565;28;42388;-60
2021/12/23 03:14:59;;;;;;;41.20;23.27;;;;;;;-3.21;95.08;101601.47;2064592;28;45573;-60
2021/12/23 03:16:02;;;;;;;36.33;21.30;;;;;;;-3.21;95.39;101592.69;2064062;28;44630;-60
2021/12/23 03:17:06;;;;;;;33.20;19.83;;;;;;;-3.20;94.76;101589.28;2065025;28;44201;-60
2021/12/23 03:18:08;;;;;;;36.78;22.48;;;;;;;-3.19;95.07;101593.69;2064297;28;45511;-60
2021/12/23 03:19:10;;;;;;;36.53;22.55;;;;;;;-3.20;94.84;101589.28;2064517;28;45914;-60
2021/12/23 03:20:12;;;;;;;35.17;22.60;;;;;;;-3.19;94.94;101576.25;2064291;28;45535;-60
2021/12/23 03:21:15;;;;;;;36.78;22.10;;;;;;;-3.19;94.91;101571.00;2063604;28;44987;-60
2021/12/23 03:22:16;;;;;;;36.50;22.85;;;;;;;-3.19;94.58;101568.38;2063631;28;43509;-60
2021/12/23 03:23:19;;;;;;;34.70;21.92;;;;;;;-3.20;94.58;101558.72;2064518;28;43297;-60
2021/12/23 03:24:20;;;;;;;34.35;23.25;;;;;;;-3.19;94.91;101555.28;2064222;28;44391;-60
2021/12/23 03:25:22;;;;;;;35.08;22.27;;;;;;;-3.18;94.76;101548.31;2064739;28;30288;-60
2021/12/23 03:26:24;;;;;;;34.30;22.42;;;;;;;-3.18;94.37;101543.09;2063989;28;45496;-60
2021/12/23 03:27:26;;;;;;;33.83;21.45;;;;;;;-3.17;95.10;101537.03;2064139;28;44937;-60
2021/12/23 03:28:28;;;;;;;35.58;21.83;;;;;;;-3.16;94.67;101529.25;2064650;28;30235;-60
2021/12/23 03:29:29;;;;;;;31.00;20.55;;;;;;;-3.17;94.83;101524.81;2064594;28;44398;-60
2021/12/23 03:30:31;;;;;;;36.15;22.50;;;;;;;-3.15;94.35;101517.91;2064115;28;45341;-60
2021/12/23 03:31:33;;;;;;;33.03;20.42;;;;;;;-3.14;94.13;101513.56;2064222;28;45209;-61
2021/12/23 03:32:35;;;;;;;36.10;22.40;;;;;;;-3.15;94.43;101504.81;2064359;28;41645;-60
2021/12/23 03:33:37;;;;;;;32.63;21.05;;;;;;;-3.14;94.37;101492.63;2063889;28;45795;-60
2021/12/23 03:34:38;;;;;;;32.90;21.48;;;;;;;-3.13;94.24;101490.06;2064414;28;44603;-60
2021/12/23 03:35:40;;;;;;;36.08;21.20;;;;;;;-3.11;93.76;101488.41;2064072;28;45464;-59
2021/12/23 03:36:42;;;;;;;31.52;19.85;;;;;;;-3.10;93.73;101492.81;2064303;28;46476;-60
2021/12/23 03:37:45;;;;;;;36.53;21.23;;;;;;;-3.11;93.62;101488.41;2064346;28;44810;-60
2021/12/23 03:38:47;;;;;;;37.92;22.85;;;;;;;-3.11;93.70;101480.53;2064359;28;45764;-60
2021/12/23 03:39:51;;;;;;;32.83;20.85;;;;;;;-3.10;93.95;101473.59;2064311;28;46560;-60
2021/12/23 03:40:53;;;;;;;34.53;21.48;;;;;;;-3.09;94.14;101472.75;2064310;28;42187;-60
2021/12/23 03:41:55;;;;;;;34.67;22.52;;;;;;;-3.10;93.73;101471.88;2063918;28;44037;-60
2021/12/23 03:42:57;;;;;;;34.75;21.27;;;;;;;-3.09;94.00;101473.66;2064187;28;46102;-60
2021/12/23 03:44:01;;;;;;;34.13;21.38;;;;;;;-3.09;94.27;101468.44;2065310;28;20046;-60
2021/12/23 03:45:05;;;;;;;38.58;21.88;;;;;;;-3.07;93.63;101466.75;2064390;28;46513;-60
2021/12/23 03:46:07;;;;;;;34.85;21.63;;;;;;;-3.07;93.82;101456.28;2063616;28;43894;-60
2021/12/23 03:47:08;;;;;;;35.67;20.85;;;;;;;-3.05;93.31;101460.69;2063710;28;45453;-60
2021/12/23 03:48:15;;;;;;;32.45;20.90;;;;;;;-3.05;93.40;101452.81;2064204;28;46270;-60
2021/12/23 03:49:17;;;;;;;36.20;22.40;;;;;;;-3.05;93.32;101452.81;2064313;28;45424;-60
2021/12/23 03:50:22;;;;;;;37.97;22.52;;;;;;;-3.05;93.77;101455.44;2064023;28;46553;-60
2021/12/23 03:51:24;;;;;;;32.22;20.45;;;;;;;-3.04;93.59;101433.66;2064502;28;29373;-60
2021/12/23 03:52:31;;;;;;;34.13;21.02;;;;;;;-3.05;93.59;101444.97;2063987;28;45201;-60
2021/12/23 03:53:37;;;;;;;32.95;19.65;;;;;;;-3.04;93.50;101439.78;2062892;28;45913;-60
2021/12/23 03:54:39;;;;;;;36.83;21.90;;;;;;;-3.04;94.25;101446.75;2063732;28;45130;-60
2021/12/23 03:55:41;;;;;;;33.65;20.27;;;;;;;-3.03;93.70;101441.59;2064077;28;46166;-61
2021/12/23 03:56:46;;;;;;;36.22;22.45;;;;;;;-3.04;93.69;101442.41;2063344;28;44059;-60
2021/12/23 03:57:51;;;;;;;30.83;19.83;;;;;;;-3.03;93.54;101438.06;2063624;28;44029;-60
2021/12/23 03:58:54;;;;;;;31.98;20.20;;;;;;;-3.01;93.90;101431.19;2063962;28;45863;-60
2021/12/23 03:59:56;;;;;;;31.05;20.73;;;;;;;-3.02;93.57;101421.53;2064892;28;26840;-60
2021/12/23 04:00:59;;;;;;;33.30;22.05;;;;;;;-3.03;93.18;101415.41;2064390;28;46422;-60
2021/12/23 04:02:02;;;;;;;31.10;20.42;;;;;;;-2.99;92.80;101416.41;2064630;28;43780;-60
2021/12/23 04:03:04;;;;;;;29.38;19.75;;;;;;;-2.99;93.03;101411.19;2064314;28;44107;-60
2021/12/23 04:04:06;;;;;;;32.00;20.27;;;;;;;-2.99;93.22;101411.19;2063724;28;46462;-61
2021/12/23 04:05:11;;;;;;;36.85;21.13;;;;;;;-2.97;92.98;101402.53;2064151;28;43571;-60
2021/12/23 04:06:13;;;;;;;31.80;19.67;;;;;;;-2.96;93.24;101400.78;2063558;28;44209;-60
2021/12/23 04:07:16;;;;;;;29.20;19.38;;;;;;;-2.95;92.83;101398.25;2064213;28;44410;-60
2021/12/23 04:08:20;;;;;;;31.67;18.35;;;;;;;-2.95;92.79;101382.53;2064354;28;30685;-60
2021/12/23 04:09:22;;;;;;;32.28;20.15;;;;;;;-2.94;92.64;101393.91;2064115;28;44011;-60
2021/12/23 04:10:24;;;;;;;32.45;20.10;;;;;;;-2.94;92.57;101394.81;2064128;28;42477;-60
2021/12/23 04:11:26;;;;;;;33.95;19.70;;;;;;;-2.94;92.71;101393.91;2064198;28;45581;-60
2021/12/23 04:12:28;;;;;;;35.10;21.77;;;;;;;-2.93;93.09;101395.69;2064062;28;46080;-60
2021/12/23 04:13:29;;;;;;;28.60;18.77;;;;;;;-2.94;93.57;101384.31;2064937;28;26216;-60
2021/12/23 04:14:31;;;;;;;31.15;19.90;;;;;;;-2.93;93.01;101388.72;2064032;28;45288;-59
2021/12/23 04:15:33;;;;;;;31.65;19.50;;;;;;;-2.91;92.26;101386.16;2063288;28;43634;-60
2021/12/23 04:16:35;;;;;;;30.63;19.83;;;;;;;-2.91;93.02;101387.06;2064059;28;44047;-60
2021/12/23 04:17:37;;;;;;;27.10;17.75;;;;;;;-2.92;92.74;101395.75;2063813;28;44895;-60
2021/12/23 04:18:39;;;;;;;29.80;20.02;;;;;;;-2.91;92.65;101404.50;2063979;28;45021;-60
2021/12/23 04:19:43;;;;;;;32.17;19.38;;;;;;;-2.88;92.24;101389.78;2064061;28;45099;-60
2021/12/23 04:21:03;;;;;;;32.15;20.13;;;;;;;-2.86;92.44;101381.09;2063658;28;42574;-60
2021/12/23 04:22:05;;;;;;;28.10;18.95;;;;;;;-2.83;92.46;101382.13;2063307;28;45732;-59
2021/12/23 04:23:07;;;;;;;27.73;17.95;;;;;;;-2.84;91.71;101369.84;2065805;28;45626;-60
2021/12/23 04:24:10;;;;;;;27.40;18.50;;;;;;;-2.81;91.73;101369.97;2071873;28;45326;-60
2021/12/23 04:25:14;;;;;;;29.48;19.40;;;;;;;-2.82;92.68;101373.41;2064055;28;45596;-60
2021/12/23 04:26:16;;;;;;;31.45;19.25;;;;;;;-2.82;92.65;101388.25;2063437;28;46238;-60
2021/12/23 04:27:17;;;;;;;31.35;20.63;;;;;;;-2.80;92.73;101421.56;2063596;28;43894;-60
2021/12/23 04:28:21;;;;;;;31.88;20.52;;;;;;;-2.81;92.66;101414.50;2063834;28;45123;-60
2021/12/23 04:29:23;;;;;;;30.88;19.85;;;;;;;-2.81;92.47;101383.06;2063840;28;43541;-60
2021/12/23 04:30:25;;;;;;;29.25;19.83;;;;;;;-2.81;93.42;101385.69;2063813;28;45773;-60
2021/12/23 04:31:27;;;;;;;31.05;20.42;;;;;;;-2.81;93.38;101414.50;2063752;28;44932;-60
2021/12/23 04:32:29;;;;;;;31.58;20.38;;;;;;;-2.78;93.12;101411.09;2064102;28;44111;-61
2021/12/23 04:33:32;;;;;;;29.55;19.65;;;;;;;-2.78;92.92;101395.38;2064088;28;45274;-60
2021/12/23 04:34:34;;;;;;;31.52;20.23;;;;;;;-2.80;93.67;101412.78;2063757;28;41492;-60
2021/12/23 04:35:36;;;;;;;30.17;19.52;;;;;;;-2.80;93.33;101426.78;2063667;28;44442;-60
2021/12/23 04:36:38;;;;;;;30.65;19.27;;;;;;;-2.79;93.62;101422.44;2063908;28;46330;-60
2021/12/23 04:37:40;;;;;;;32.30;21.20;;;;;;;-2.80;93.27;101429.41;2063862;28;45682;-60
2021/12/23 04:38:43;;;;;;;29.30;19.92;;;;;;;-2.80;94.27;101447.75;2063738;28;45303;-60
2021/12/23 04:39:45;;;;;;;29.52;20.08;;;;;;;-2.79;94.09;101444.28;2063412;28;42381;-60
2021/12/23 04:40:47;;;;;;;34.78;21.35;;;;;;;-2.79;93.49;101425.06;2063067;28;45187;-60
2021/12/23 04:41:48;;;;;;;33.58;20.73;;;;;;;-2.80;93.52;101410.16;2063841;28;44761;-60
2021/12/23 04:42:50;;;;;;;33.90;20.05;;;;;;;-2.81;93.89;101401.41;2064257;28;28583;-60
2021/12/23 04:43:54;;;;;;;33.78;21.35;;;;;;;-2.80;94.23;101404.91;2063626;28;46406;-60
2021/12/23 04:44:58;;;;;;;29.50;20.08;;;;;;;-2.80;94.27;101412.78;2063920;28;44896;-60
2021/12/23 04:46:00;;;;;;;30.88;19.75;;;;;;;-2.80;94.22;101405.81;2064672;28;32931;-60
2021/12/23 04:47:04;;;;;;;34.35;21.77;;;;;;;-2.77;94.56;101394.56;2063700;28;45356;-60
2021/12/23 04:48:06;;;;;;;29.77;19.85;;;;;;;-2.80;94.37;101377.00;2063325;28;44952;-60
2021/12/23 04:49:08;;;;;;;32.72;20.70;;;;;;;-2.80;93.81;101363.91;2063552;28;45157;-60
2021/12/23 04:50:15;;;;;;;32.60;21.30;;;;;;;-2.80;93.68;101377.00;2063654;28;44670;-60
2021/12/23 04:51:18;;;;;;;28.60;18.48;;;;;;;-2.77;93.99;101378.84;2063420;28;45164;-60
2021/12/23 04:52:20;;;;;;;30.27;20.00;;;;;;;-2.77;94.19;101373.59;2063793;28;46361;-60
2021/12/23 04:53:22;;;;;;;30.77;21.00;;;;;;;-2.77;93.35;101371.84;2063833;28;43875;-60